Time;durP1;ratioP1;P1;durP2;ratioP2;P2;SDS_P1;SDS_P2;PMS_P1;PMS_P2;Temp;Humidity;BMP_temperature;BMP_pressure;BME280_temperature;BME280_humidity;BME280_pressure;Samples;Min_cycle;Max_cycle;Signal;HPM_P1;HPM_P2
2021/12/04 00:02:04;;;;;;;5.63;2.30;;;3.50;99.90;;;;;;4994010;28;20423;-74
2021/12/04 00:04:34;;;;;;;3.03;2.00;;;3.50;99.90;;;;;;4993235;28;20424;-74
2021/12/04 00:07:00;;;;;;;1.83;1.73;;;3.50;99.90;;;;;;4993702;28;20423;-74
2021/12/04 00:09:25;;;;;;;3.00;2.13;;;3.60;99.90;;;;;;4993473;28;20959;-73
2021/12/04 00:12:09;;;;;;;2.80;2.33;;;3.60;99.90;;;;;;4993385;28;20605;-74
2021/12/04 00:14:37;;;;;;;2.70;2.10;;;3.60;99.90;;;;;;4991884;28;20183;-73
2021/12/04 00:17:04;;;;;;;3.20;2.30;;;3.60;99.90;;;;;;4993341;28;20499;-73
2021/12/04 00:19:30;;;;;;;3.80;2.30;;;3.60;99.90;;;;;;4993191;28;20418;-73
2021/12/04 00:21:55;;;;;;;3.90;2.40;;;3.60;99.90;;;;;;4993262;28;20409;-73
2021/12/04 00:24:22;;;;;;;3.43;2.33;;;3.60;99.90;;;;;;4993149;28;20564;-73
2021/12/04 00:26:49;;;;;;;5.50;2.83;;;3.60;99.90;;;;;;4993307;28;20603;-74
2021/12/04 00:29:15;;;;;;;5.67;2.90;;;3.60;99.90;;;;;;4993300;28;20736;-73
2021/12/04 00:31:47;;;;;;;3.13;2.30;;;3.60;99.90;;;;;;4992798;28;20445;-74
2021/12/04 00:34:13;;;;;;;2.43;2.00;;;3.60;99.90;;;;;;4993002;28;20171;-73
2021/12/04 00:36:55;;;;;;;2.37;1.90;;;3.60;99.90;;;;;;4993027;28;20406;-73
2021/12/04 00:50:18;;;;;;;2.20;1.80;;;3.70;99.90;;;;;;4992929;28;20401;-73
2021/12/04 00:52:43;;;;;;;4.53;2.10;;;3.70;99.90;;;;;;4992238;28;20840;-71
2021/12/04 00:55:09;;;;;;;2.90;2.20;;;3.70;99.90;;;;;;4992587;28;20191;-73
2021/12/04 00:57:35;;;;;;;2.10;1.90;;;3.70;99.90;;;;;;4992919;28;20179;-74
2021/12/04 01:00:01;;;;;;;2.10;1.90;;;3.70;99.90;;;;;;4992770;28;20387;-73
2021/12/04 05:31:56;;;;;;;10.70;7.37;;;3.20;99.90;;;;;;5534008;23;20488;-73
2021/12/04 05:34:22;;;;;;;15.17;7.37;;;3.20;99.90;;;;;;4893636;29;20426;-75
2021/12/04 05:36:48;;;;;;;9.30;6.60;;;3.20;99.90;;;;;;4895196;29;20436;-76
2021/12/04 05:39:14;;;;;;;10.00;7.30;;;3.20;99.90;;;;;;4896541;29;20187;-75
2021/12/04 05:41:40;;;;;;;8.63;7.33;;;3.20;99.90;;;;;;4896715;29;20198;-75
2021/12/04 05:44:08;;;;;;;11.30;7.50;;;3.20;99.90;;;;;;4898062;29;20779;-75
2021/12/04 05:46:46;;;;;;;12.10;8.43;;;3.30;99.90;;;;;;4888333;29;20456;-75
2021/12/04 05:49:20;;;;;;;11.60;7.33;;;3.30;99.90;;;;;;4896623;29;20438;-76
2021/12/04 05:56:50;;;;;;;17.33;8.57;;;3.30;99.90;;;;;;4896694;29;20430;-76
2021/12/04 05:59:16;;;;;;;12.80;8.17;;;3.30;99.90;;;;;;4896410;29;20850;-73
2021/12/04 06:01:42;;;;;;;13.63;7.60;;;3.30;99.90;;;;;;4894951;29;20203;-73
2021/12/04 06:04:07;;;;;;;9.60;7.27;;;3.30;99.90;;;;;;4895903;29;20183;-73
2021/12/04 06:06:33;;;;;;;8.83;7.17;;;3.30;99.90;;;;;;4896542;29;20176;-74
2021/12/04 06:08:58;;;;;;;8.97;7.70;;;3.40;99.90;;;;;;4896002;29;20179;-73
2021/12/04 06:11:24;;;;;;;13.97;8.10;;;3.40;99.90;;;;;;4896246;29;20203;-70
2021/12/04 06:13:50;;;;;;;12.67;8.30;;;3.40;99.90;;;;;;4896035;29;20178;-73
2021/12/04 06:16:16;;;;;;;13.50;7.23;;;3.50;99.90;;;;;;4896223;29;20227;-72
2021/12/04 06:18:46;;;;;;;12.00;7.97;;;3.40;99.90;;;;;;4896093;29;20556;-73
2021/12/04 06:23:56;;;;;;;8.20;6.40;;;3.50;99.90;;;;;;4896163;29;20407;-72
2021/12/04 06:26:22;;;;;;;9.03;6.87;;;3.60;99.90;;;;;;4896278;29;20398;-73
2021/12/04 06:28:48;;;;;;;13.30;7.13;;;3.60;99.90;;;;;;4896147;29;20187;-72
2021/12/04 06:31:14;;;;;;;9.50;7.70;;;3.60;99.90;;;;;;4896280;29;20223;-73
2021/12/04 06:33:40;;;;;;;11.03;7.17;;;3.50;99.90;;;;;;4895760;29;20208;-73
2021/12/04 06:36:07;;;;;;;11.50;5.70;;;3.50;99.90;;;;;;4896115;29;20876;-73
2021/12/04 06:38:33;;;;;;;6.50;5.90;;;3.50;99.90;;;;;;4896176;29;20416;-73
2021/12/04 06:40:59;;;;;;;6.53;5.50;;;3.50;99.90;;;;;;4898988;29;20526;-73
2021/12/04 06:43:25;;;;;;;9.40;6.67;;;3.50;99.90;;;;;;4899428;29;20805;-70
2021/12/04 06:45:59;;;;;;;8.23;5.70;;;3.50;99.90;;;;;;4899480;29;20194;-71
2021/12/04 06:48:32;;;;;;;7.37;5.70;;;3.50;99.90;;;;;;4900213;29;20475;-73
2021/12/04 06:51:04;;;;;;;8.07;5.60;;;3.60;99.90;;;;;;4899577;29;20992;-73
2021/12/04 06:53:41;;;;;;;8.63;6.30;;;3.60;99.90;;;;;;4899142;29;20486;-73
2021/12/04 06:56:10;;;;;;;8.47;5.30;;;3.60;99.90;;;;;;4899129;29;20429;-73
2021/12/04 06:58:36;;;;;;;7.00;5.97;;;3.70;99.90;;;;;;4899611;29;20423;-72
2021/12/04 07:01:06;;;;;;;8.77;6.00;;;3.70;99.90;;;;;;4899293;29;20443;-73
2021/12/04 07:03:32;;;;;;;7.40;5.70;;;3.70;99.90;;;;;;4898907;29;20498;-72
2021/12/04 07:05:57;;;;;;;8.57;5.60;;;3.70;99.90;;;;;;4898101;29;20837;-71
2021/12/04 07:08:23;;;;;;;8.77;5.63;;;3.70;99.90;;;;;;4899077;29;20184;-72
2021/12/04 07:10:48;;;;;;;9.47;7.63;;;3.80;99.90;;;;;;4899099;29;20297;-72
2021/12/04 07:13:14;;;;;;;9.43;5.63;;;3.80;99.90;;;;;;4898553;29;20265;-71
2021/12/04 07:15:44;;;;;;;8.90;6.27;;;3.80;99.90;;;;;;4899014;29;20194;-68
2021/12/04 07:18:09;;;;;;;7.70;5.17;;;3.90;99.90;;;;;;4898685;29;20183;-71
2021/12/04 07:20:35;;;;;;;10.70;4.67;;;3.90;99.90;;;;;;4898898;29;20424;-72
2021/12/04 07:23:00;;;;;;;6.97;5.37;;;4.00;99.90;;;;;;4898289;29;20199;-72
2021/12/04 07:25:27;;;;;;;5.77;4.30;;;4.00;99.90;;;;;;4897464;29;20612;-71
2021/12/04 07:27:52;;;;;;;7.37;5.00;;;4.00;99.90;;;;;;4898646;29;20189;-71
2021/12/04 07:30:19;;;;;;;5.53;5.00;;;4.10;99.90;;;;;;4898232;29;20471;-72
2021/12/04 07:32:45;;;;;;;7.18;5.50;;;4.10;99.90;;;;;;4897312;29;20444;-69
2021/12/04 07:35:11;;;;;;;4.87;4.43;;;4.20;99.90;;;;;;4898153;29;20236;-72
2021/12/04 07:37:36;;;;;;;7.50;5.30;;;4.30;99.90;;;;;;4897629;29;20478;-71
2021/12/04 07:40:03;;;;;;;6.23;4.13;;;4.30;99.90;;;;;;4898344;29;20839;-71
2021/12/04 07:42:29;;;;;;;2.83;2.33;;;4.30;99.90;;;;;;4897841;29;20287;-71
2021/12/04 07:44:54;;;;;;;3.10;2.80;;;4.40;99.90;;;;;;4897616;29;20538;-71
2021/12/04 07:47:20;;;;;;;1.50;1.40;;;4.40;99.90;;;;;;4897826;29;20224;-71
2021/12/04 07:49:46;;;;;;;3.87;2.23;;;4.50;99.90;;;;;;4897667;29;20208;-71
2021/12/04 07:52:11;;;;;;;4.27;1.00;;;4.50;99.90;;;;;;4897420;29;20216;-71
2021/12/04 07:54:38;;;;;;;0.70;0.67;;;4.60;99.90;;;;;;4897475;29;20177;-71
2021/12/04 07:57:04;;;;;;;0.70;0.60;;;4.70;99.90;;;;;;4897582;29;20172;-71
2021/12/04 07:59:30;;;;;;;0.80;0.50;;;4.70;99.90;;;;;;4897780;29;20477;-71
2021/12/04 08:01:57;;;;;;;0.60;0.60;;;4.80;99.90;;;;;;4897481;29;20505;-71
2021/12/04 08:04:23;;;;;;;0.90;0.53;;;4.90;99.90;;;;;;4897409;29;20438;-72
2021/12/04 08:06:49;;;;;;;1.57;0.60;;;4.90;99.90;;;;;;4897260;29;20937;-71
2021/12/04 08:09:15;;;;;;;0.70;0.70;;;5.10;99.90;;;;;;4896116;29;20426;-72
2021/12/04 08:11:41;;;;;;;1.73;0.80;;;5.10;99.90;;;;;;4896926;29;20471;-71
2021/12/04 08:14:06;;;;;;;0.70;0.70;;;5.20;99.90;;;;;;4895428;29;20183;-71
2021/12/04 08:16:32;;;;;;;0.70;0.60;;;5.20;99.90;;;;;;4896818;29;20195;-73
2021/12/04 08:18:59;;;;;;;2.30;0.70;;;5.30;99.90;;;;;;4896610;29;20185;-71
2021/12/04 08:21:25;;;;;;;4.00;1.03;;;5.30;99.90;;;;;;4897689;29;20821;-72
2021/12/04 08:23:50;;;;;;;0.83;0.80;;;5.40;99.90;;;;;;4897420;29;20504;-72
2021/12/04 08:26:16;;;;;;;2.50;0.90;;;5.40;99.90;;;;;;4897612;29;20508;-71
2021/12/04 08:28:42;;;;;;;0.83;0.83;;;5.50;99.90;;;;;;4897478;29;20278;-72
2021/12/04 08:31:08;;;;;;;2.83;0.70;;;5.50;99.90;;;;;;4897351;29;20224;-72
2021/12/04 08:33:33;;;;;;;2.13;0.60;;;5.60;99.90;;;;;;4896642;29;20220;-70
2021/12/04 08:36:01;;;;;;;0.90;0.90;;;5.70;99.90;;;;;;4897655;29;20256;-73
2021/12/04 08:38:27;;;;;;;0.60;0.60;;;5.70;99.90;;;;;;4897664;29;20628;-72
2021/12/04 08:40:52;;;;;;;0.93;0.77;;;5.70;99.90;;;;;;4897259;29;20437;-72
2021/12/04 08:43:18;;;;;;;0.80;0.67;;;5.70;99.90;;;;;;4897071;29;20537;-71
2021/12/04 08:45:44;;;;;;;1.80;0.60;;;5.80;99.90;;;;;;4897204;29;20509;-71
2021/12/04 08:48:12;;;;;;;1.23;0.53;;;5.80;99.90;;;;;;4898013;29;20425;-72
2021/12/04 08:50:38;;;;;;;2.10;0.70;;;5.90;99.90;;;;;;4896525;29;20220;-72
2021/12/04 08:53:06;;;;;;;2.63;0.60;;;5.90;99.90;;;;;;4893980;29;20825;-72
2021/12/04 08:55:35;;;;;;;0.97;0.87;;;5.90;99.90;;;;;;4911451;29;20564;-72
2021/12/04 08:58:01;;;;;;;2.30;0.60;;;5.90;99.90;;;;;;4896822;29;20448;-72
2021/12/04 09:00:36;;;;;;;0.70;0.50;;;6.00;99.90;;;;;;4895744;29;20426;-72
2021/12/04 09:03:03;;;;;;;1.73;0.87;;;6.00;99.90;;;;;;4896250;29;20417;-71
2021/12/04 09:05:29;;;;;;;0.73;0.73;;;6.10;99.90;;;;;;4896827;29;20435;-72
2021/12/04 09:07:55;;;;;;;0.80;0.70;;;6.10;99.90;;;;;;4896725;29;20458;-72
2021/12/04 09:10:21;;;;;;;0.90;0.60;;;6.20;99.90;;;;;;4896880;29;20182;-72
2021/12/04 09:12:48;;;;;;;0.60;0.60;;;6.20;99.90;;;;;;4896480;29;20305;-70
2021/12/04 09:15:19;;;;;;;1.13;0.70;;;6.20;99.90;;;;;;4897744;29;20471;-73
2021/12/04 09:17:45;;;;;;;2.03;0.63;;;6.30;99.90;;;;;;4897341;29;20426;-73
2021/12/04 09:20:12;;;;;;;3.43;1.47;;;6.40;99.90;;;;;;4896842;29;20561;-73
2021/12/04 09:22:38;;;;;;;0.80;0.70;;;6.40;99.90;;;;;;4897020;29;20230;-72
2021/12/04 09:25:10;;;;;;;3.47;0.90;;;6.50;99.90;;;;;;4896472;29;20434;-72
2021/12/04 09:27:46;;;;;;;1.07;0.90;;;6.50;99.90;;;;;;4897047;29;20974;-72
2021/12/04 09:35:30;;;;;;;2.07;0.67;;;6.50;99.90;;;;;;4896476;29;21022;-72
2021/12/04 10:06:06;;;;;;;0.70;0.70;;;7.00;99.90;;;;;;4888022;29;20521;-73
2021/12/04 10:13:54;;;;;;;1.30;1.00;;;7.20;99.90;;;;;;4896021;29;20888;-72
2021/12/04 10:19:13;;;;;;;2.07;1.07;;;7.40;99.90;;;;;;4899993;29;20435;-71
2021/12/04 10:21:46;;;;;;;0.70;0.63;;;7.40;99.90;;;;;;4899997;29;20231;-74
2021/12/04 10:24:43;;;;;;;0.67;0.67;;;7.50;99.90;;;;;;4899542;29;20435;-71
2021/12/04 10:33:17;;;;;;;1.10;0.90;;;7.70;99.90;;;;;;4899233;29;21054;-71
2021/12/04 10:35:43;;;;;;;0.70;0.70;;;7.70;99.90;;;;;;4899588;29;20435;-74
2021/12/04 10:38:21;;;;;;;0.50;0.50;;;7.80;99.90;;;;;;4899351;29;20413;-71
2021/12/04 10:40:48;;;;;;;1.00;0.60;;;8.00;99.90;;;;;;4899356;29;20485;-71
2021/12/04 10:43:25;;;;;;;0.93;0.60;;;8.10;99.90;;;;;;4898896;29;20780;-71
2021/12/04 10:45:55;;;;;;;0.60;0.40;;;8.20;99.90;;;;;;4899412;29;20397;-71
2021/12/04 10:48:25;;;;;;;0.60;0.50;;;8.30;99.90;;;;;;4899132;29;20422;-72
2021/12/04 10:51:19;;;;;;;5.60;1.47;;;8.40;99.90;;;;;;4900353;29;20441;-73
2021/12/04 10:53:49;;;;;;;0.93;0.50;;;8.50;99.90;;;;;;4899888;29;20495;-72
2021/12/04 10:56:37;;;;;;;0.60;0.60;;;8.60;99.90;;;;;;4899428;29;20784;-72
2021/12/04 11:02:34;;;;;;;0.40;0.40;;;8.80;99.90;;;;;;4899595;29;20441;-73
2021/12/04 11:18:52;;;;;;;1.90;1.03;;;9.00;99.90;;;;;;4898933;29;20505;-72
2021/12/04 11:21:52;;;;;;;0.83;0.60;;;9.10;99.90;;;;;;4898342;29;20464;-71
2021/12/04 11:27:10;;;;;;;0.93;0.70;;;9.10;99.90;;;;;;4898451;29;20419;-73
2021/12/04 11:40:32;;;;;;;1.23;0.90;;;9.30;99.90;;;;;;4899839;29;20532;-73
2021/12/04 11:43:03;;;;;;;1.30;0.60;;;9.30;99.90;;;;;;4898366;29;21063;-73
2021/12/04 11:45:44;;;;;;;1.10;0.80;;;9.30;99.90;;;;;;4898774;29;20450;-73
2021/12/04 11:48:10;;;;;;;2.00;0.70;;;9.40;99.90;;;;;;4898394;29;20891;-73
2021/12/04 11:50:49;;;;;;;1.13;0.83;;;9.30;99.90;;;;;;4898392;29;20428;-72
2021/12/04 11:53:19;;;;;;;3.13;0.80;;;9.40;99.90;;;;;;4898029;29;20501;-73
2021/12/04 11:55:47;;;;;;;1.67;0.60;;;9.40;99.90;;;;;;4898350;29;20417;-72
2021/12/04 11:58:22;;;;;;;0.90;0.60;;;9.40;99.90;;;;;;4898378;29;20445;-72
2021/12/04 12:00:49;;;;;;;1.80;0.50;;;9.40;99.90;;;;;;4897792;29;20918;-73
2021/12/04 12:03:20;;;;;;;0.80;0.70;;;9.50;99.90;;;;;;4897838;29;20425;-73
2021/12/04 12:05:54;;;;;;;0.70;0.50;;;9.50;99.90;;;;;;4896589;29;20426;-72
2021/12/04 12:08:27;;;;;;;2.13;0.70;;;9.60;99.90;;;;;;4897945;29;21031;-73
2021/12/04 12:10:58;;;;;;;0.70;0.70;;;9.60;99.90;;;;;;4897910;29;20441;-72
2021/12/04 12:13:28;;;;;;;0.40;0.40;;;9.60;99.90;;;;;;4897496;29;20464;-72
2021/12/04 12:16:10;;;;;;;1.07;0.50;;;9.70;99.90;;;;;;4897765;29;20420;-73
2021/12/04 12:18:51;;;;;;;0.67;0.50;;;9.80;99.90;;;;;;4897885;29;20414;-72
2021/12/04 12:21:22;;;;;;;1.33;0.80;;;9.80;99.90;;;;;;4897452;29;20980;-73
2021/12/04 12:24:32;;;;;;;0.70;0.70;;;9.80;99.90;;;;;;4897645;29;20421;-73
2021/12/04 12:27:15;;;;;;;0.93;0.70;;;9.80;99.90;;;;;;4897534;29;20417;-73
2021/12/04 12:32:55;;;;;;;0.70;0.50;;;9.90;99.90;;;;;;4897414;29;20847;-73
2021/12/04 12:38:29;;;;;;;0.50;0.50;;;9.90;99.90;;;;;;4897215;29;20391;-72
2021/12/04 12:41:03;;;;;;;1.80;0.50;;;9.80;99.90;;;;;;4897089;29;20441;-71
2021/12/04 12:44:01;;;;;;;0.60;0.50;;;9.80;99.90;;;;;;4896948;29;20416;-73
2021/12/04 12:46:34;;;;;;;0.80;0.50;;;9.80;99.90;;;;;;4892918;29;20467;-72
2021/12/04 12:49:00;;;;;;;0.60;0.50;;;9.80;99.90;;;;;;4896908;29;20431;-72
2021/12/04 12:51:30;;;;;;;0.80;0.47;;;9.80;99.90;;;;;;4897390;29;20441;-73
2021/12/04 12:53:58;;;;;;;2.10;0.50;;;9.80;99.90;;;;;;4895731;29;20463;-72
2021/12/04 12:56:27;;;;;;;2.77;0.50;;;9.80;99.90;;;;;;4896910;29;20916;-72
2021/12/04 13:13:33;;;;;;;0.50;0.50;;;9.60;99.90;;;;;;4896437;29;20553;-72
2021/12/04 13:16:20;;;;;;;0.93;0.50;;;9.60;99.90;;;;;;4896544;29;20411;-72
2021/12/04 13:18:53;;;;;;;0.87;0.60;;;9.60;99.90;;;;;;4895799;29;20429;-72
2021/12/04 13:21:19;;;;;;;0.60;0.50;;;9.60;99.90;;;;;;4896215;29;20436;-72
2021/12/04 13:23:50;;;;;;;0.50;0.40;;;9.60;99.90;;;;;;4896410;29;20790;-72
2021/12/04 13:26:16;;;;;;;2.50;0.53;;;9.60;99.90;;;;;;4896488;29;20604;-72
2021/12/04 13:28:49;;;;;;;0.57;0.50;;;9.60;99.90;;;;;;4896490;29;20434;-72
2021/12/04 13:31:17;;;;;;;0.50;0.50;;;9.60;99.90;;;;;;4896295;29;20318;-72
2021/12/04 13:33:46;;;;;;;0.50;0.50;;;9.70;99.90;;;;;;4896475;29;20444;-72
2021/12/04 13:36:18;;;;;;;0.70;0.50;;;9.60;99.90;;;;;;4894290;29;20507;-72
2021/12/04 13:38:43;;;;;;;0.50;0.50;;;9.60;99.90;;;;;;4896685;29;20428;-72
2021/12/04 13:41:11;;;;;;;0.70;0.60;;;9.60;99.90;;;;;;4895004;29;20449;-73
2021/12/04 13:43:36;;;;;;;0.40;0.40;;;9.60;99.90;;;;;;4896277;29;20185;-73
2021/12/04 13:46:05;;;;;;;0.60;0.60;;;9.60;99.90;;;;;;4896302;29;20779;-73
2021/12/04 13:48:32;;;;;;;0.60;0.60;;;9.60;99.90;;;;;;4896622;29;20272;-73
2021/12/04 13:50:59;;;;;;;2.73;0.70;;;9.60;99.90;;;;;;4900882;29;20440;-73
2021/12/04 13:53:30;;;;;;;1.17;0.60;;;9.60;99.90;;;;;;4900841;29;20831;-73
2021/12/04 13:56:04;;;;;;;0.70;0.70;;;9.60;99.90;;;;;;4900302;29;20426;-73
2021/12/04 13:58:30;;;;;;;0.90;0.50;;;9.50;99.90;;;;;;4900649;29;20475;-72
2021/12/04 14:00:58;;;;;;;0.60;0.60;;;9.40;99.90;;;;;;4900464;29;20541;-74
2021/12/04 14:03:27;;;;;;;0.60;0.60;;;9.40;99.90;;;;;;4900121;29;20199;-73
2021/12/04 14:05:53;;;;;;;0.50;0.50;;;9.30;99.90;;;;;;4900226;29;20516;-73
2021/12/04 14:08:20;;;;;;;0.90;0.57;;;9.20;99.90;;;;;;4900175;29;20455;-72
2021/12/04 14:10:48;;;;;;;0.60;0.60;;;9.20;99.90;;;;;;4900312;29;20428;-73
2021/12/04 14:13:16;;;;;;;0.80;0.67;;;9.20;99.90;;;;;;4899585;29;20470;-72
2021/12/04 14:15:44;;;;;;;0.63;0.63;;;9.10;99.90;;;;;;4900251;29;20486;-72
2021/12/04 14:18:14;;;;;;;1.43;0.50;;;9.10;99.90;;;;;;4899861;29;20448;-72
2021/12/04 14:20:42;;;;;;;0.60;0.60;;;9.10;99.90;;;;;;4899860;29;20434;-72
2021/12/04 14:23:08;;;;;;;1.70;0.53;;;9.10;99.90;;;;;;4899651;29;20478;-73
2021/12/04 14:25:42;;;;;;;1.17;0.80;;;9.10;99.90;;;;;;4899713;29;20424;-72
2021/12/04 14:28:09;;;;;;;0.70;0.57;;;9.10;99.90;;;;;;4900108;29;20427;-73
2021/12/04 14:30:36;;;;;;;1.23;0.60;;;9.10;99.90;;;;;;4899359;29;20497;-73
2021/12/04 14:33:03;;;;;;;1.77;1.67;;;9.00;99.90;;;;;;4899576;29;20842;-72
2021/12/04 14:35:35;;;;;;;1.30;1.20;;;9.00;99.90;;;;;;4899374;29;20413;-73
2021/12/04 14:38:04;;;;;;;0.90;0.90;;;9.00;99.90;;;;;;4897697;29;20452;-73
2021/12/04 14:40:33;;;;;;;0.93;0.93;;;9.00;99.90;;;;;;4899228;29;20449;-70
2021/12/04 14:42:59;;;;;;;1.03;1.00;;;9.10;99.90;;;;;;4899315;29;20454;-73
2021/12/04 14:45:31;;;;;;;4.33;1.57;;;9.00;99.90;;;;;;4899302;29;20984;-72
2021/12/04 14:48:05;;;;;;;2.50;2.20;;;9.10;99.90;;;;;;4899341;29;20417;-72
2021/12/04 14:50:32;;;;;;;6.43;5.80;;;9.10;99.90;;;;;;4899351;29;20428;-71
2021/12/04 14:53:01;;;;;;;4.33;3.93;;;9.00;99.90;;;;;;4899061;29;20467;-73
2021/12/04 14:55:30;;;;;;;4.10;3.60;;;9.10;99.90;;;;;;4899213;29;20420;-73
2021/12/04 14:57:57;;;;;;;4.80;3.70;;;9.00;99.90;;;;;;4899424;29;21090;-73
2021/12/04 15:00:29;;;;;;;13.13;8.10;;;9.00;99.90;;;;;;4898476;29;20415;-73
2021/12/04 15:03:11;;;;;;;6.67;5.70;;;9.00;99.90;;;;;;4898710;29;20467;-73
2021/12/04 15:05:46;;;;;;;2.90;2.70;;;9.00;99.90;;;;;;4898102;29;20432;-73
2021/12/04 15:08:21;;;;;;;3.90;3.70;;;9.00;99.90;;;;;;4899028;29;20413;-73
2021/12/04 15:10:58;;;;;;;8.23;4.43;;;9.00;99.90;;;;;;4897844;29;20423;-73
2021/12/04 15:13:29;;;;;;;3.63;2.30;;;8.90;99.90;;;;;;4898697;29;20470;-73
2021/12/04 15:15:58;;;;;;;1.83;1.73;;;8.90;99.90;;;;;;4898885;29;20426;-73
2021/12/04 15:18:31;;;;;;;3.97;3.67;;;8.90;99.90;;;;;;4898707;29;20422;-73
2021/12/04 15:21:00;;;;;;;3.97;3.10;;;8.90;99.90;;;;;;4898719;29;20442;-73
2021/12/04 15:23:28;;;;;;;2.80;2.60;;;8.90;99.90;;;;;;4898607;29;20431;-73
2021/12/04 15:25:56;;;;;;;6.40;3.50;;;8.80;99.90;;;;;;4898776;29;20430;-73
2021/12/04 15:28:25;;;;;;;3.80;2.03;;;8.80;99.90;;;;;;4898912;29;20427;-72
2021/12/04 15:30:54;;;;;;;2.60;0.90;;;8.80;99.90;;;;;;4898431;29;20469;-73
2021/12/04 15:33:34;;;;;;;3.63;0.90;;;8.80;99.90;;;;;;4898458;29;20547;-73
2021/12/04 15:36:00;;;;;;;2.53;2.43;;;8.80;99.90;;;;;;4898446;29;20383;-73
2021/12/04 15:38:40;;;;;;;2.73;1.17;;;8.70;99.90;;;;;;4898464;29;20432;-73
2021/12/04 15:41:19;;;;;;;3.77;3.53;;;8.70;99.90;;;;;;4898242;29;20440;-73
2021/12/04 15:44:08;;;;;;;6.27;2.90;;;8.80;99.90;;;;;;4898351;29;20781;-73
2021/12/04 15:46:53;;;;;;;4.80;4.40;;;8.80;99.90;;;;;;4898594;29;20424;-73
2021/12/04 15:55:04;;;;;;;2.13;1.27;;;8.80;99.90;;;;;;4898294;29;20549;-74
2021/12/04 15:57:31;;;;;;;3.20;2.10;;;8.80;99.90;;;;;;4898405;29;20798;-75
2021/12/04 16:00:04;;;;;;;5.70;2.60;;;8.70;99.90;;;;;;4898067;29;20501;-74
2021/12/04 16:02:34;;;;;;;4.03;1.90;;;8.70;99.90;;;;;;4898195;29;20440;-74
2021/12/04 16:05:08;;;;;;;1.63;1.53;;;8.70;99.90;;;;;;4898006;29;20424;-74
2021/12/04 16:07:33;;;;;;;1.00;1.00;;;8.60;99.90;;;;;;4897373;29;20436;-74
2021/12/04 16:10:12;;;;;;;2.63;1.20;;;8.60;99.90;;;;;;4897786;29;20509;-74
2021/12/04 16:12:39;;;;;;;1.10;1.00;;;8.60;99.90;;;;;;4896807;29;20585;-75
2021/12/04 16:15:06;;;;;;;2.80;2.47;;;8.50;99.90;;;;;;4896847;29;20416;-74
2021/12/04 16:17:32;;;;;;;1.97;1.87;;;8.50;99.90;;;;;;4898657;29;20811;-74
2021/12/04 16:20:05;;;;;;;1.93;1.83;;;8.50;99.90;;;;;;4897598;29;20425;-75
2021/12/04 16:22:36;;;;;;;2.63;2.43;;;8.50;99.90;;;;;;4897737;29;20447;-74
2021/12/04 16:25:04;;;;;;;2.07;1.83;;;8.50;99.90;;;;;;4897674;29;20434;-75
2021/12/04 16:27:33;;;;;;;2.90;2.50;;;8.50;99.90;;;;;;4897726;29;20420;-74
2021/12/04 16:30:12;;;;;;;1.70;1.43;;;8.50;99.90;;;;;;4897558;29;20515;-74
2021/12/04 16:33:07;;;;;;;2.50;2.10;;;8.50;99.90;;;;;;4897230;29;20530;-74
2021/12/04 16:37:59;;;;;;;1.10;1.00;;;8.50;99.90;;;;;;4901451;29;20412;-73
2021/12/04 16:40:46;;;;;;;1.13;0.80;;;8.60;99.90;;;;;;4901333;29;20420;-74
2021/12/04 16:43:19;;;;;;;0.70;0.70;;;8.50;99.90;;;;;;4896680;29;20790;-73
2021/12/04 16:45:50;;;;;;;0.80;0.70;;;8.50;99.90;;;;;;4897213;29;20427;-74
2021/12/04 16:48:16;;;;;;;3.20;0.93;;;8.40;99.90;;;;;;4896964;29;20434;-74
2021/12/04 16:58:45;;;;;;;1.23;0.70;;;8.50;99.90;;;;;;4897134;29;20418;-74
2021/12/04 17:01:11;;;;;;;0.77;0.77;;;8.50;99.90;;;;;;4896814;29;20959;-74
2021/12/04 17:03:37;;;;;;;1.77;0.70;;;8.50;99.90;;;;;;4896582;29;20440;-74
2021/12/04 17:06:03;;;;;;;1.43;1.20;;;8.50;99.90;;;;;;4896623;29;20427;-74
2021/12/04 17:08:28;;;;;;;1.13;1.03;;;8.40;99.90;;;;;;4896796;29;20177;-73
2021/12/04 17:10:54;;;;;;;1.03;1.03;;;8.40;99.90;;;;;;4896500;29;20744;-74
2021/12/04 17:13:20;;;;;;;1.83;1.00;;;8.40;99.90;;;;;;4896174;29;20218;-74
2021/12/04 17:15:48;;;;;;;1.00;0.90;;;8.30;99.90;;;;;;4896820;29;20184;-74
2021/12/04 17:18:20;;;;;;;5.10;1.87;;;8.30;99.90;;;;;;4896372;29;20532;-73
2021/12/04 17:20:47;;;;;;;3.90;2.00;;;8.30;99.90;;;;;;4896633;29;20414;-73
2021/12/04 17:23:15;;;;;;;2.03;1.93;;;8.30;99.90;;;;;;4895881;29;20434;-73
2021/12/04 17:25:41;;;;;;;3.43;1.93;;;8.40;99.90;;;;;;4896516;29;20497;-73
2021/12/04 17:28:09;;;;;;;4.00;2.87;;;8.40;99.90;;;;;;4895071;29;20461;-74
2021/12/04 17:30:37;;;;;;;5.53;3.80;;;8.40;99.90;;;;;;4896230;29;20474;-74
2021/12/04 17:33:04;;;;;;;3.37;2.00;;;8.40;99.90;;;;;;4895873;29;20469;-74
2021/12/04 17:35:31;;;;;;;2.20;2.00;;;8.40;99.90;;;;;;4896564;29;20445;-74
2021/12/04 17:37:59;;;;;;;2.80;2.47;;;8.40;99.90;;;;;;4895231;29;20964;-73
2021/12/04 17:40:26;;;;;;;2.53;1.63;;;8.40;99.90;;;;;;4896317;29;20794;-73
2021/12/04 17:42:52;;;;;;;1.70;1.60;;;8.30;99.90;;;;;;4896212;29;20535;-74
2021/12/04 17:45:19;;;;;;;1.97;1.63;;;8.30;99.90;;;;;;4896186;29;20455;-73
2021/12/04 17:47:48;;;;;;;1.60;1.50;;;8.30;99.90;;;;;;4896444;29;20509;-74
2021/12/04 17:50:25;;;;;;;0.90;0.60;;;8.20;99.90;;;;;;4896195;29;20413;-73
2021/12/04 17:52:52;;;;;;;2.20;0.90;;;8.20;99.90;;;;;;4895933;29;20468;-73
2021/12/04 17:55:18;;;;;;;4.33;3.00;;;8.20;99.90;;;;;;4896293;29;21020;-73
2021/12/04 17:57:44;;;;;;;2.43;2.20;;;8.20;99.90;;;;;;4895184;29;20429;-73
2021/12/04 18:00:24;;;;;;;1.00;1.00;;;8.20;99.90;;;;;;4895989;29;20429;-74
2021/12/04 18:02:53;;;;;;;3.90;0.80;;;8.30;99.90;;;;;;4895863;29;20197;-74
2021/12/04 18:05:24;;;;;;;1.17;0.73;;;8.20;99.90;;;;;;4885998;29;20478;-73
2021/12/04 18:07:51;;;;;;;1.93;0.60;;;8.20;99.90;;;;;;4892567;29;21088;-73
2021/12/04 18:10:19;;;;;;;0.70;0.50;;;8.10;99.90;;;;;;4895524;29;20964;-74
2021/12/04 18:12:54;;;;;;;0.60;0.50;;;8.10;99.90;;;;;;4895402;29;20472;-73
2021/12/04 18:15:30;;;;;;;3.10;0.60;;;8.00;99.90;;;;;;4892934;29;20472;-74
2021/12/04 18:17:56;;;;;;;0.50;0.50;;;7.90;99.90;;;;;;4887719;29;20465;-73
2021/12/04 18:20:23;;;;;;;1.80;0.60;;;7.80;99.90;;;;;;4895434;29;20524;-74
2021/12/04 18:22:49;;;;;;;0.60;0.60;;;7.70;99.90;;;;;;4894832;29;20255;-72
2021/12/04 18:25:15;;;;;;;1.13;1.13;;;7.60;99.90;;;;;;4895436;29;21321;-74
2021/12/04 18:27:42;;;;;;;0.80;0.80;;;7.60;99.90;;;;;;4884268;29;20887;-74
2021/12/04 18:30:14;;;;;;;0.93;0.93;;;7.60;99.90;;;;;;4895083;29;20477;-73
2021/12/04 18:32:41;;;;;;;1.33;0.90;;;7.50;99.90;;;;;;4895293;29;21024;-74
2021/12/04 18:35:08;;;;;;;0.83;0.60;;;7.40;99.90;;;;;;4898599;29;20472;-74
2021/12/04 18:37:34;;;;;;;1.07;0.90;;;7.40;99.90;;;;;;4918325;29;20414;-73
2021/12/04 18:39:59;;;;;;;0.90;0.90;;;7.40;99.90;;;;;;4918489;29;20426;-74
2021/12/04 18:42:25;;;;;;;0.90;0.70;;;7.40;99.90;;;;;;4917062;29;20438;-74
2021/12/04 18:44:51;;;;;;;0.70;0.70;;;7.30;99.90;;;;;;4918171;29;20554;-74
2021/12/04 18:47:17;;;;;;;1.53;0.70;;;7.30;99.90;;;;;;4912731;29;20433;-73
2021/12/04 18:49:43;;;;;;;0.80;0.70;;;7.20;99.90;;;;;;4900191;29;20186;-73
2021/12/04 18:52:09;;;;;;;1.50;0.60;;;7.20;99.90;;;;;;4898879;29;20583;-72
2021/12/04 18:54:34;;;;;;;0.87;0.60;;;7.10;99.90;;;;;;4899145;29;20427;-74
2021/12/04 18:57:00;;;;;;;0.80;0.80;;;7.10;99.90;;;;;;4898940;29;20188;-73
2021/12/04 18:59:27;;;;;;;0.60;0.60;;;7.10;99.90;;;;;;4899096;29;20640;-73
2021/12/04 19:01:58;;;;;;;0.70;0.70;;;7.10;99.90;;;;;;4898848;29;20456;-73
2021/12/04 19:04:24;;;;;;;1.00;0.90;;;7.10;99.90;;;;;;4898778;29;20424;-73
2021/12/04 19:06:50;;;;;;;0.70;0.70;;;7.10;99.90;;;;;;4898080;29;20845;-73
2021/12/04 19:09:15;;;;;;;0.70;0.70;;;7.00;99.90;;;;;;4898736;29;20415;-73
2021/12/04 19:11:43;;;;;;;0.80;0.80;;;7.00;99.90;;;;;;4898974;29;20550;-73
2021/12/04 19:14:09;;;;;;;0.50;0.50;;;7.00;99.90;;;;;;4898452;29;20206;-73
2021/12/04 19:16:34;;;;;;;1.73;0.77;;;7.00;99.90;;;;;;4898843;29;20423;-73
2021/12/04 19:19:00;;;;;;;0.70;0.70;;;7.00;99.90;;;;;;4898598;29;20179;-73
2021/12/04 19:21:28;;;;;;;0.70;0.70;;;7.00;99.90;;;;;;4898407;29;20209;-73
2021/12/04 19:23:54;;;;;;;0.90;0.73;;;6.90;99.90;;;;;;4898389;29;20183;-74
2021/12/04 19:26:20;;;;;;;1.10;0.90;;;6.90;99.90;;;;;;4898516;29;20524;-74
2021/12/04 19:28:47;;;;;;;1.30;1.20;;;6.90;99.90;;;;;;4898748;29;20563;-73
2021/12/04 19:31:17;;;;;;;1.10;1.10;;;6.90;99.90;;;;;;4898065;29;20529;-73
2021/12/04 19:50:33;;;;;;;0.50;0.50;;;6.60;99.90;;;;;;4898415;29;20490;-73
2021/12/04 19:53:13;;;;;;;0.70;0.70;;;6.50;99.90;;;;;;4897541;29;20466;-74
2021/12/04 19:55:41;;;;;;;1.03;0.73;;;6.50;99.90;;;;;;4898211;29;20423;-73
2021/12/04 19:58:08;;;;;;;0.97;0.97;;;6.40;99.90;;;;;;4897857;29;20509;-73
2021/12/04 20:00:48;;;;;;;3.53;1.20;;;6.40;99.90;;;;;;4898088;29;20423;-71
2021/12/04 20:13:33;;;;;;;1.10;1.00;;;6.20;99.90;;;;;;4897534;29;20496;-73
2021/12/04 20:16:01;;;;;;;1.17;0.90;;;6.10;99.90;;;;;;4897943;29;20541;-73
2021/12/04 20:18:27;;;;;;;1.73;0.87;;;6.10;99.90;;;;;;4898464;29;20415;-73